Time;durP1;ratioP1;P1;durP2;ratioP2;P2;SDS_P1;SDS_P2;PMS_P1;PMS_P2;Temp;Humidity;BMP_temperature;BMP_pressure;BME280_temperature;BME280_humidity;BME280_pressure;Samples;Min_cycle;Max_cycle;Signal;HPM_P1;HPM_P2
2023/03/24 00:00:59;;;;;;;26.30;22.70;;;;;21.30;99011.00;;;;2096014;28;20216;-74
2023/03/24 00:02:00;;;;;;;26.52;21.90;;;;;21.30;99000.00;;;;2101539;28;20461;-74
2023/03/24 00:03:01;;;;;;;25.70;22.90;;;;;21.30;99004.00;;;;2113415;28;20221;-73
2023/03/24 00:04:01;;;;;;;21.95;19.73;;;;;21.30;99000.00;;;;2113885;28;20214;-74
2023/03/24 00:05:04;;;;;;;22.83;20.27;;;;;21.30;99002.00;;;;2112990;28;20238;-74
2023/03/24 00:06:06;;;;;;;23.63;20.67;;;;;21.30;99001.00;;;;2113974;28;20214;-74
2023/03/24 00:07:07;;;;;;;22.08;19.80;;;;;21.20;98927.00;;;;2112766;28;20215;-74
2023/03/24 00:08:07;;;;;;;23.13;20.50;;;;;21.20;98995.00;;;;2113738;28;20724;-74
2023/03/24 00:09:08;;;;;;;21.83;19.63;;;;;21.30;98993.00;;;;2113976;28;20245;-74
2023/03/24 00:10:10;;;;;;;21.13;18.77;;;;;21.20;98999.00;;;;2112402;28;20214;-74
2023/03/24 00:11:11;;;;;;;22.05;18.25;;;;;21.20;98995.00;;;;2104529;28;20215;-74
2023/03/24 00:12:12;;;;;;;21.07;18.77;;;;;21.20;98999.00;;;;2104059;28;20257;-74
2023/03/24 00:13:13;;;;;;;19.67;17.60;;;;;21.20;98995.00;;;;2104641;28;20222;-74
2023/03/24 00:14:13;;;;;;;23.27;20.07;;;;;21.30;99001.00;;;;2104677;28;20237;-74
2023/03/24 00:15:17;;;;;;;22.07;19.37;;;;;21.30;98989.00;;;;2112378;28;20211;-74
2023/03/24 00:16:18;;;;;;;21.63;18.48;;;;;21.30;98994.00;;;;2113571;28;20264;-74
2023/03/24 00:17:19;;;;;;;20.10;17.50;;;;;21.20;98999.00;;;;2112677;28;20214;-74
2023/03/24 00:18:21;;;;;;;20.27;17.30;;;;;21.20;98991.00;;;;2113574;28;20213;-75
2023/03/24 00:19:21;;;;;;;19.70;17.45;;;;;21.20;98989.00;;;;2112962;28;20312;-75
2023/03/24 00:20:22;;;;;;;19.87;17.83;;;;;21.20;98992.00;;;;2113753;28;20215;-75
2023/03/24 00:21:23;;;;;;;18.50;16.53;;;;;21.20;98982.00;;;;2113182;28;20214;-75
2023/03/24 00:22:27;;;;;;;22.17;17.65;;;;;21.20;98905.00;;;;2112702;28;20218;-75
2023/03/24 00:23:31;;;;;;;18.92;16.38;;;;;21.20;98987.00;;;;2104214;28;20283;-74
2023/03/24 00:24:32;;;;;;;18.25;16.45;;;;;21.20;98978.00;;;;2104659;28;20765;-73
2023/03/24 00:25:35;;;;;;;17.37;15.50;;;;;21.20;98896.00;;;;2098489;28;20308;-73
2023/03/24 00:26:38;;;;;;;18.08;16.17;;;;;21.20;98976.00;;;;2103084;28;20226;-74
2023/03/24 00:27:38;;;;;;;18.17;15.93;;;;;21.20;98956.00;;;;2109621;28;20219;-73
2023/03/24 00:28:38;;;;;;;16.33;14.60;;;;;21.20;98968.00;;;;2112307;28;20203;-74
2023/03/24 00:29:40;;;;;;;18.47;15.83;;;;;21.20;98964.00;;;;2113006;28;20207;-75
2023/03/24 00:30:40;;;;;;;17.92;16.08;;;;;21.20;98969.00;;;;2113354;28;20203;-74
2023/03/24 00:31:42;;;;;;;16.57;14.90;;;;;21.20;98972.00;;;;2112292;28;20202;-74
2023/03/24 00:32:42;;;;;;;16.55;14.00;;;;;21.10;98965.00;;;;2113211;28;20286;-75
2023/03/24 00:33:43;;;;;;;15.57;13.97;;;;;21.10;98966.00;;;;2103418;28;20215;-75
2023/03/24 00:34:44;;;;;;;15.90;14.10;;;;;21.10;98964.00;;;;2096234;28;20309;-75
2023/03/24 00:35:44;;;;;;;16.47;14.77;;;;;21.10;98956.00;;;;2103145;28;20210;-74
2023/03/24 00:36:44;;;;;;;16.10;13.90;;;;;21.10;98947.00;;;;2112889;28;20219;-74
2023/03/24 00:37:45;;;;;;;14.80;13.30;;;;;21.10;98944.00;;;;2113187;28;20230;-75
2023/03/24 00:38:48;;;;;;;14.93;13.47;;;;;21.10;98947.00;;;;2112446;28;20207;-75
2023/03/24 00:39:49;;;;;;;15.63;14.02;;;;;21.10;98942.00;;;;2112917;28;20290;-75
2023/03/24 00:40:50;;;;;;;16.67;14.83;;;;;21.10;98947.00;;;;2112596;28;20225;-74
2023/03/24 00:41:50;;;;;;;14.77;13.23;;;;;21.10;98936.00;;;;2113144;28;20207;-75
2023/03/24 00:42:51;;;;;;;15.50;13.67;;;;;21.10;98937.00;;;;2112084;28;21076;-74
2023/03/24 00:43:57;;;;;;;16.13;14.52;;;;;21.10;98930.00;;;;2113139;28;20279;-75
2023/03/24 00:44:57;;;;;;;16.10;13.30;;;;;21.10;98939.00;;;;2112508;28;20210;-74
2023/03/24 00:46:02;;;;;;;15.10;13.27;;;;;21.10;98928.00;;;;2112840;28;20210;-75
2023/03/24 00:47:03;;;;;;;15.20;12.93;;;;;21.10;98935.00;;;;2112951;28;20234;-74
2023/03/24 00:48:04;;;;;;;13.83;11.97;;;;;21.10;98929.00;;;;2112477;28;20293;-74
2023/03/24 00:49:05;;;;;;;14.73;12.60;;;;;21.10;98933.00;;;;2113237;28;20677;-75
2023/03/24 00:50:08;;;;;;;14.00;12.20;;;;;21.10;98926.00;;;;2112024;28;20563;-74
2023/03/24 00:51:09;;;;;;;14.20;12.05;;;;;21.10;98930.00;;;;2095542;28;20212;-74
2023/03/24 00:52:21;;;;;;;13.15;11.35;;;;;21.10;98923.00;;;;2095434;28;20208;-75
2023/03/24 00:53:22;;;;;;;13.20;11.80;;;;;21.10;98918.00;;;;2095847;28;23096;-73
2023/03/24 00:54:26;;;;;;;13.00;11.60;;;;;21.10;98915.00;;;;2086885;28;20228;-75
2023/03/24 00:55:27;;;;;;;13.90;11.95;;;;;21.10;98913.00;;;;2104532;28;20215;-75
2023/03/24 00:56:29;;;;;;;13.93;11.50;;;;;21.10;98906.00;;;;2113439;28;20221;-75
2023/03/24 00:57:33;;;;;;;13.10;11.70;;;;;21.10;98904.00;;;;2112475;28;20275;-74
2023/03/24 00:58:34;;;;;;;12.88;11.13;;;;;21.10;98906.00;;;;2113086;28;20242;-74
2023/03/24 00:59:41;;;;;;;11.67;10.47;;;;;21.10;98903.00;;;;2110070;28;20226;-74
2023/03/24 01:00:41;;;;;;;13.38;11.18;;;;;21.10;98902.00;;;;2105076;28;20208;-75
2023/03/24 01:01:42;;;;;;;12.13;10.90;;;;;21.10;98899.00;;;;2105765;28;20234;-75
2023/03/24 01:02:42;;;;;;;11.77;10.57;;;;;21.10;98905.00;;;;2113178;28;20216;-75
2023/03/24 01:03:47;;;;;;;11.60;10.40;;;;;21.10;98904.00;;;;2104014;28;20713;-75
2023/03/24 01:04:52;;;;;;;12.00;10.70;;;;;21.10;98898.00;;;;2104163;28;20212;-74
2023/03/24 01:05:56;;;;;;;11.80;10.50;;;;;21.10;98893.00;;;;2113237;28;20343;-74
2023/03/24 01:06:57;;;;;;;11.75;9.93;;;;;21.00;98904.00;;;;2112286;28;20246;-75
2023/03/24 01:08:02;;;;;;;11.90;10.40;;;;;21.00;98905.00;;;;2113423;28;20214;-75
2023/03/24 01:09:04;;;;;;;10.90;9.70;;;;;21.00;98896.00;;;;2103152;28;20650;-74
2023/03/24 01:10:04;;;;;;;11.93;10.38;;;;;21.00;98907.00;;;;2096407;28;20216;-74
2023/03/24 01:11:05;;;;;;;12.50;10.00;;;;;21.00;98892.00;;;;2103738;28;20218;-75
2023/03/24 01:12:05;;;;;;;10.73;9.63;;;;;21.00;98890.00;;;;2112411;28;20264;-75
2023/03/24 01:13:06;;;;;;;10.60;9.10;;;;;21.00;98891.00;;;;2113072;28;20219;-74
2023/03/24 01:14:07;;;;;;;10.83;9.73;;;;;21.00;98889.00;;;;2112088;28;20207;-75
2023/03/24 01:15:12;;;;;;;11.10;9.90;;;;;21.00;98889.00;;;;2093603;28;20794;-75
2023/03/24 01:16:12;;;;;;;11.05;9.65;;;;;21.00;98895.00;;;;2095790;28;20196;-75
2023/03/24 01:17:12;;;;;;;10.50;9.40;;;;;21.00;98895.00;;;;2113174;28;20215;-74
2023/03/24 01:18:13;;;;;;;10.93;9.73;;;;;21.00;98897.00;;;;2113105;28;20215;-75
2023/03/24 01:19:14;;;;;;;9.97;8.97;;;;;21.00;98890.00;;;;2112501;28;20674;-75
2023/03/24 01:20:14;;;;;;;11.40;9.40;;;;;21.00;98889.00;;;;2113241;28;20453;-75
2023/03/24 01:21:15;;;;;;;10.20;9.03;;;;;21.00;98891.00;;;;2112430;28;20217;-75
2023/03/24 01:22:15;;;;;;;10.60;9.07;;;;;21.00;98884.00;;;;2113257;28;20225;-75
2023/03/24 01:23:18;;;;;;;9.90;8.90;;;;;21.00;98891.00;;;;2112046;28;20242;-75
2023/03/24 01:24:20;;;;;;;10.10;9.10;;;;;21.00;98893.00;;;;2113004;28;20283;-75
2023/03/24 01:25:21;;;;;;;10.20;9.20;;;;;21.00;98900.00;;;;2111295;28;20238;-75
2023/03/24 01:26:22;;;;;;;10.05;8.40;;;;;21.10;98897.00;;;;2104106;28;20251;-75
2023/03/24 01:27:22;;;;;;;9.17;8.27;;;;;21.00;98901.00;;;;2104176;28;20611;-75
2023/03/24 01:28:23;;;;;;;9.97;8.40;;;;;21.00;98892.00;;;;2112091;28;20708;-75
2023/03/24 01:29:24;;;;;;;9.43;8.43;;;;;21.00;98893.00;;;;2113147;28;20206;-75
2023/03/24 01:30:26;;;;;;;9.80;8.40;;;;;21.00;98891.00;;;;2112278;28;20226;-74
2023/03/24 01:31:26;;;;;;;9.05;8.15;;;;;21.00;98897.00;;;;2112989;28;20269;-75
2023/03/24 01:32:28;;;;;;;9.03;8.13;;;;;21.00;98881.00;;;;2112400;28;20295;-75
2023/03/24 01:33:28;;;;;;;9.85;7.55;;;;;21.00;98878.00;;;;2112464;28;20634;-74
2023/03/24 01:34:28;;;;;;;9.07;8.13;;;;;21.00;98875.00;;;;2112836;28;20238;-75
2023/03/24 01:35:29;;;;;;;12.03;7.93;;;;;21.00;98888.00;;;;2111922;28;20221;-75
2023/03/24 01:36:29;;;;;;;8.40;7.60;;;;;21.00;98883.00;;;;2095386;28;20208;-75
2023/03/24 01:37:29;;;;;;;8.40;7.40;;;;;21.00;98887.00;;;;2099984;28;20235;-75
2023/03/24 01:38:30;;;;;;;9.73;8.00;;;;;21.00;98886.00;;;;2113060;28;20214;-75
2023/03/24 01:39:30;;;;;;;8.80;7.60;;;;;21.00;98868.00;;;;2111936;28;20230;-75
2023/03/24 01:40:31;;;;;;;9.30;7.70;;;;;21.00;98863.00;;;;2112852;28;20219;-75
2023/03/24 01:41:34;;;;;;;8.48;7.35;;;;;21.00;98860.00;;;;2103636;28;20230;-75
2023/03/24 01:42:35;;;;;;;9.05;8.15;;;;;21.00;98856.00;;;;2103109;28;20214;-74
2023/03/24 01:43:35;;;;;;;8.70;7.80;;;;;21.00;98858.00;;;;2103782;28;20294;-74
2023/03/24 01:44:36;;;;;;;8.50;7.70;;;;;21.00;98857.00;;;;2095247;28;20281;-75
2023/03/24 01:46:02;;;;;;;7.70;7.00;;;;;21.00;98858.00;;;;2095214;28;20212;-74
2023/03/24 01:47:05;;;;;;;7.32;6.55;;;;;21.00;98864.00;;;;2096286;28;20436;-75
2023/03/24 01:48:17;;;;;;;7.82;7.03;;;;;21.00;98835.00;;;;2112397;28;20290;-74
2023/03/24 01:49:18;;;;;;;7.43;6.57;;;;;21.00;98853.00;;;;2103049;28;20235;-75
2023/03/24 01:50:18;;;;;;;7.67;6.77;;;;;21.00;98849.00;;;;2087190;28;20205;-74
2023/03/24 01:51:20;;;;;;;7.27;6.20;;;;;21.00;98852.00;;;;2086903;28;20243;-73
2023/03/24 01:52:34;;;;;;;7.07;6.20;;;;;21.00;98837.00;;;;2095563;28;20216;-74
2023/03/24 01:53:36;;;;;;;7.70;6.82;;;;;20.90;98836.00;;;;2088467;28;20221;-74
2023/03/24 01:54:45;;;;;;;7.75;6.85;;;;;20.90;98838.00;;;;2072434;28;20210;-75
2023/03/24 01:55:46;;;;;;;6.88;6.28;;;;;20.90;98835.00;;;;2072944;28;20213;-75
2023/03/24 01:56:49;;;;;;;7.70;6.30;;;;;20.90;98829.00;;;;2093639;28;20772;-75
2023/03/24 01:57:52;;;;;;;6.97;6.28;;;;;20.90;98831.00;;;;2103676;28;20461;-75
2023/03/24 01:58:55;;;;;;;6.28;5.68;;;;;20.90;98802.00;;;;2086691;28;20304;-75
2023/03/24 01:59:57;;;;;;;6.40;5.75;;;;;20.90;98819.00;;;;2086905;28;20224;-75
2023/03/24 02:00:57;;;;;;;6.72;5.60;;;;;20.90;98820.00;;;;2095437;28;20236;-75
2023/03/24 02:02:01;;;;;;;6.90;6.17;;;;;20.90;98813.00;;;;2111896;28;20211;-74
2023/03/24 02:03:06;;;;;;;8.85;6.32;;;;;20.90;98818.00;;;;2101884;28;20219;-74
2023/03/24 02:04:06;;;;;;;6.25;5.55;;;;;20.90;98831.00;;;;2095900;28;20634;-74
2023/03/24 02:05:08;;;;;;;6.00;5.40;;;;;20.90;98823.00;;;;2094031;28;20238;-74
2023/03/24 02:06:08;;;;;;;6.20;5.60;;;;;20.90;98809.00;;;;2095113;28;20289;-74
2023/03/24 02:07:28;;;;;;;7.27;6.13;;;;;20.90;98806.00;;;;2096967;28;20289;-75
2023/03/24 02:08:33;;;;;;;6.10;5.50;;;;;20.90;98817.00;;;;2095530;28;20216;-75
2023/03/24 02:09:33;;;;;;;7.30;6.03;;;;;20.90;98803.00;;;;2094572;28;20831;-73
2023/03/24 02:10:34;;;;;;;7.10;6.40;;;;;20.90;98795.00;;;;2090965;28;20236;-74
2023/03/24 02:11:35;;;;;;;7.00;6.27;;;;;20.90;98797.00;;;;2078676;28;20224;-74
2023/03/24 02:12:36;;;;;;;7.18;5.03;;;;;20.90;98793.00;;;;2086149;28;20217;-74
2023/03/24 02:13:36;;;;;;;6.60;5.90;;;;;20.90;98801.00;;;;2095122;28;20208;-75
2023/03/24 02:14:36;;;;;;;5.90;5.40;;;;;20.90;98796.00;;;;2102934;28;20698;-74
2023/03/24 02:16:00;;;;;;;6.10;5.50;;;;;20.90;98793.00;;;;2103207;28;20901;-75
2023/03/24 02:17:23;;;;;;;6.22;5.60;;;;;20.90;98786.00;;;;2080921;28;20242;-75
2023/03/24 02:18:32;;;;;;;6.40;5.60;;;;;20.90;98791.00;;;;2100967;28;20646;-75
2023/03/24 02:19:56;;;;;;;6.25;5.65;;;;;20.90;98797.00;;;;2104241;28;20219;-75
2023/03/24 02:21:18;;;;;;;6.13;5.22;;;;;20.90;98794.00;;;;2111931;28;20289;-74
2023/03/24 02:22:39;;;;;;;5.88;4.97;;;;;20.90;98784.00;;;;2094691;28;20216;-74
2023/03/24 02:23:56;;;;;;;5.72;5.13;;;;;20.90;98780.00;;;;2100217;28;20227;-74
2023/03/24 02:25:12;;;;;;;5.90;5.20;;;;;20.90;98784.00;;;;2095282;28;20277;-74
2023/03/24 02:26:38;;;;;;;5.50;5.00;;;;;20.80;98766.00;;;;2098352;28;20212;-74
2023/03/24 02:28:04;;;;;;;5.43;4.70;;;;;20.90;98765.00;;;;2112369;28;20211;-74
2023/03/24 02:29:24;;;;;;;5.50;4.63;;;;;20.90;98779.00;;;;2102741;28;20214;-75
2023/03/24 02:30:40;;;;;;;5.35;4.60;;;;;20.90;98764.00;;;;2100504;28;20657;-75
2023/03/24 02:32:04;;;;;;;5.53;4.53;;;;;20.90;98766.00;;;;2098526;28;20266;-74
2023/03/24 02:33:22;;;;;;;4.95;4.35;;;;;20.90;98764.00;;;;2097315;28;20215;-74
2023/03/24 02:34:35;;;;;;;4.80;4.30;;;;;20.90;98776.00;;;;2106760;28;20274;-75
2023/03/24 02:35:54;;;;;;;5.65;4.90;;;;;20.90;98763.00;;;;2111124;28;20210;-74
2023/03/24 02:37:11;;;;;;;4.78;4.28;;;;;20.80;98754.00;;;;2112545;28;20225;-74
2023/03/24 02:38:31;;;;;;;5.03;4.60;;;;;20.80;98752.00;;;;2102147;28;20298;-74
2023/03/24 02:39:31;;;;;;;5.85;4.75;;;;;20.80;98751.00;;;;2105948;28;20235;-75
2023/03/24 02:41:05;;;;;;;4.73;4.23;;;;;20.80;98751.00;;;;2111914;28;20222;-75
2023/03/24 02:42:28;;;;;;;4.90;4.40;;;;;20.80;98745.00;;;;2111022;28;20214;-75
2023/03/24 02:43:42;;;;;;;6.45;5.03;;;;;20.80;98754.00;;;;2103178;28;20234;-75
2023/03/24 02:45:04;;;;;;;4.30;3.90;;;;;20.90;98742.00;;;;2087541;28;20228;-74
2023/03/24 02:46:16;;;;;;;5.32;4.47;;;;;20.80;98739.00;;;;2098158;28;20215;-74
2023/03/24 02:47:31;;;;;;;5.45;4.40;;;;;20.80;98740.00;;;;2098423;28;20210;-75
2023/03/24 02:49:07;;;;;;;6.47;4.25;;;;;20.90;98732.00;;;;2106508;28;21045;-74
2023/03/24 02:50:38;;;;;;;4.97;4.47;;;;;20.80;98745.00;;;;2092768;28;20291;-74
2023/03/24 02:51:41;;;;;;;5.35;4.78;;;;;20.80;98733.00;;;;2100897;28;20215;-74
2023/03/24 02:53:00;;;;;;;5.00;4.05;;;;;20.80;98739.00;;;;2086956;28;20292;-74
2023/03/24 02:54:06;;;;;;;4.93;4.30;;;;;20.80;98753.00;;;;2082234;28;20705;-75
2023/03/24 02:55:33;;;;;;;4.68;3.80;;;;;20.90;98745.00;;;;2089758;28;20650;-74
2023/03/24 02:56:51;;;;;;;4.35;3.75;;;;;20.80;98729.00;;;;2100845;28;20207;-74
2023/03/24 02:58:03;;;;;;;4.32;3.92;;;;;20.80;98736.00;;;;2103272;28;20297;-75
2023/03/24 02:59:05;;;;;;;6.53;4.30;;;;;20.80;98732.00;;;;2104444;28;20298;-75
2023/03/24 03:00:12;;;;;;;4.97;4.30;;;;;20.80;98740.00;;;;2095559;28;20246;-74
2023/03/24 03:01:31;;;;;;;4.25;3.85;;;;;20.80;98695.00;;;;2089319;28;20941;-74
2023/03/24 03:02:32;;;;;;;4.32;3.65;;;;;20.80;98717.00;;;;2094880;28;20267;-75
2023/03/24 03:03:38;;;;;;;3.90;3.50;;;;;20.80;98722.00;;;;2088908;28;20719;-75
2023/03/24 03:04:48;;;;;;;4.30;3.90;;;;;20.80;98733.00;;;;2089639;28;20284;-74
2023/03/24 03:06:02;;;;;;;4.05;3.20;;;;;20.80;98738.00;;;;2089601;28;20660;-75
2023/03/24 03:07:11;;;;;;;4.38;3.83;;;;;20.80;98725.00;;;;2091636;28;20595;-75
2023/03/24 03:08:12;;;;;;;3.85;3.17;;;;;20.80;98725.00;;;;2090003;28;20224;-75
2023/03/24 03:09:15;;;;;;;4.00;3.47;;;;;20.90;98725.00;;;;2089299;28;20572;-74
2023/03/24 03:10:26;;;;;;;3.95;3.55;;;;;20.80;98721.00;;;;2096104;28;21028;-75
2023/03/24 03:11:27;;;;;;;4.63;3.83;;;;;20.80;98729.00;;;;2098086;28;20232;-75
2023/03/24 03:12:29;;;;;;;3.33;3.03;;;;;20.80;98720.00;;;;2096886;28;20215;-75
2023/03/24 03:13:31;;;;;;;5.32;3.45;;;;;20.80;98726.00;;;;2088639;28;20227;-75
2023/03/24 03:14:36;;;;;;;3.42;3.13;;;;;20.80;98712.00;;;;2088100;28;20220;-75
2023/03/24 03:15:38;;;;;;;3.80;3.45;;;;;20.80;98731.00;;;;2089132;28;20209;-74
2023/03/24 03:16:44;;;;;;;4.40;3.45;;;;;20.80;98722.00;;;;2087620;28;20242;-75
2023/03/24 03:18:06;;;;;;;4.40;3.67;;;;;20.80;98721.00;;;;2089226;28;20802;-74
2023/03/24 03:19:11;;;;;;;4.32;3.35;;;;;20.80;98724.00;;;;2102556;28;20207;-75
2023/03/24 03:20:15;;;;;;;4.05;3.22;;;;;20.80;98713.00;;;;2088417;28;20217;-74
2023/03/24 03:21:18;;;;;;;3.80;3.50;;;;;20.80;98717.00;;;;2072765;28;20697;-74
2023/03/24 03:22:22;;;;;;;3.80;2.90;;;;;20.80;98706.00;;;;2072706;28;20772;-75
2023/03/24 03:23:23;;;;;;;3.75;3.17;;;;;20.80;98720.00;;;;2072926;28;20249;-74
2023/03/24 03:24:29;;;;;;;3.22;2.92;;;;;20.80;98715.00;;;;2080318;28;20218;-74
2023/03/24 03:25:32;;;;;;;3.50;3.05;;;;;20.80;98723.00;;;;2089239;28;20683;-75
2023/03/24 03:26:33;;;;;;;3.70;3.40;;;;;20.70;98722.00;;;;2096084;28;20224;-75
2023/03/24 03:27:37;;;;;;;4.00;3.50;;;;;20.80;98721.00;;;;2088385;28;20303;-75
2023/03/24 03:28:40;;;;;;;3.45;3.15;;;;;20.80;98715.00;;;;2076910;28;20217;-74
2023/03/24 03:29:43;;;;;;;3.33;3.03;;;;;20.80;98726.00;;;;2089196;28;20229;-74
2023/03/24 03:30:45;;;;;;;3.60;2.92;;;;;20.80;98733.00;;;;2099279;28;20227;-74
2023/03/24 03:31:50;;;;;;;3.90;3.50;;;;;20.80;98712.00;;;;2104863;28;20207;-74
2023/03/24 03:32:54;;;;;;;3.67;3.05;;;;;20.80;98720.00;;;;2088485;28;20244;-74
2023/03/24 03:34:15;;;;;;;4.15;3.20;;;;;20.80;98732.00;;;;2073100;28;20249;-75
2023/03/24 03:35:18;;;;;;;4.05;3.65;;;;;20.80;98739.00;;;;2085435;28;20219;-75
2023/03/24 03:36:30;;;;;;;3.40;3.10;;;;;20.80;98731.00;;;;2090979;28;20212;-74
2023/03/24 03:37:51;;;;;;;3.22;2.92;;;;;20.80;98727.00;;;;2082097;28;20258;-74
2023/03/24 03:39:13;;;;;;;4.32;3.92;;;;;20.80;98721.00;;;;2085853;28;20208;-75
2023/03/24 03:40:19;;;;;;;3.10;2.80;;;;;20.80;98720.00;;;;2092983;28;20346;-74
2023/03/24 03:41:19;;;;;;;3.30;2.95;;;;;20.80;98733.00;;;;2090391;28;20304;-75
2023/03/24 03:42:20;;;;;;;3.20;2.90;;;;;20.80;98734.00;;;;2087477;28;20209;-74
2023/03/24 03:43:20;;;;;;;3.27;2.97;;;;;20.80;98733.00;;;;2096278;28;20231;-75
2023/03/24 03:44:20;;;;;;;3.53;3.03;;;;;20.80;98739.00;;;;2080011;28;20206;-75
2023/03/24 03:45:21;;;;;;;3.53;3.23;;;;;20.80;98740.00;;;;2094000;28;20214;-75
2023/03/24 03:46:21;;;;;;;3.00;2.70;;;;;20.70;98731.00;;;;2104962;28;20212;-74
2023/03/24 03:47:22;;;;;;;3.57;3.03;;;;;20.70;98712.00;;;;2104148;28;20306;-75
2023/03/24 03:48:25;;;;;;;3.60;3.23;;;;;20.70;98726.00;;;;2113650;28;20207;-75
2023/03/24 03:49:25;;;;;;;3.38;2.92;;;;;20.70;98724.00;;;;2112661;28;20215;-75
2023/03/24 03:50:25;;;;;;;3.40;2.90;;;;;20.70;98723.00;;;;2113573;28;20215;-75
2023/03/24 03:51:26;;;;;;;3.53;2.93;;;;;20.70;98720.00;;;;2113896;28;20573;-75
2023/03/24 03:52:26;;;;;;;3.87;3.13;;;;;20.70;98729.00;;;;2112763;28;21014;-74
2023/03/24 03:53:31;;;;;;;2.43;2.23;;;;;20.80;98726.00;;;;2113644;28;20218;-75
2023/03/24 03:54:33;;;;;;;3.15;2.58;;;;;20.70;98728.00;;;;2095294;28;20240;-74
2023/03/24 03:55:34;;;;;;;2.95;2.60;;;;;20.70;98715.00;;;;2096224;28;20220;-74
2023/03/24 03:56:35;;;;;;;4.03;3.30;;;;;20.70;98725.00;;;;2098522;28;20242;-74
2023/03/24 03:57:35;;;;;;;3.63;2.43;;;;;20.70;98721.00;;;;2096196;28;20208;-74
2023/03/24 03:58:35;;;;;;;4.63;3.10;;;;;20.70;98732.00;;;;2104596;28;20446;-74
2023/03/24 03:59:36;;;;;;;3.50;3.20;;;;;20.70;98724.00;;;;2103732;28;20208;-74
2023/03/24 04:00:36;;;;;;;3.17;2.80;;;;;20.70;98713.00;;;;2104665;28;20207;-74
2023/03/24 04:01:40;;;;;;;3.13;2.83;;;;;20.70;98728.00;;;;2103850;28;20203;-74
2023/03/24 04:02:43;;;;;;;2.38;2.17;;;;;20.70;98732.00;;;;2096498;28;20737;-75
2023/03/24 04:04:10;;;;;;;3.85;2.97;;;;;20.70;98736.00;;;;2105554;28;20307;-75
2023/03/24 04:05:19;;;;;;;2.90;2.40;;;;;20.80;98750.00;;;;2095341;28;20204;-74
2023/03/24 04:06:39;;;;;;;3.00;2.63;;;;;20.70;98753.00;;;;2100421;28;20903;-75
2023/03/24 04:07:40;;;;;;;3.38;2.67;;;;;20.70;98754.00;;;;2103727;28;20223;-75
2023/03/24 04:08:50;;;;;;;2.93;2.63;;;;;20.70;98764.00;;;;2104646;28;20219;-75
2023/03/24 04:10:06;;;;;;;2.97;2.67;;;;;20.70;98764.00;;;;2095218;28;20212;-75
2023/03/24 04:11:41;;;;;;;2.40;2.20;;;;;20.70;98751.00;;;;2092137;28;20212;-74
2023/03/24 04:12:56;;;;;;;2.80;2.53;;;;;20.70;98755.00;;;;2103072;28;20211;-74
2023/03/24 04:14:16;;;;;;;4.85;2.50;;;;;20.70;98753.00;;;;2099868;28;20217;-74
2023/03/24 04:15:31;;;;;;;3.13;2.83;;;;;20.70;98755.00;;;;2098557;28;20208;-75
2023/03/24 04:16:41;;;;;;;2.65;2.45;;;;;20.70;98762.00;;;;2096557;28;20216;-75
2023/03/24 04:17:46;;;;;;;2.47;2.28;;;;;20.70;98760.00;;;;2095166;28;20231;-74
2023/03/24 04:19:07;;;;;;;2.65;2.45;;;;;20.70;98758.00;;;;2094434;28;20204;-75
2023/03/24 04:20:21;;;;;;;3.00;2.70;;;;;20.70;98780.00;;;;2098991;28;20219;-74
2023/03/24 04:21:32;;;;;;;3.60;2.63;;;;;20.70;98774.00;;;;2106293;28;20212;-74
2023/03/24 04:23:04;;;;;;;3.35;2.50;;;;;20.70;98777.00;;;;2104289;28;20226;-75
2023/03/24 04:24:27;;;;;;;3.20;2.90;;;;;20.70;98772.00;;;;2108208;28;20764;-74
2023/03/24 04:25:34;;;;;;;3.40;2.58;;;;;20.70;98772.00;;;;2112713;28;20214;-75
2023/03/24 04:26:40;;;;;;;2.65;2.15;;;;;20.70;98769.00;;;;2095529;28;20263;-75
2023/03/24 04:27:46;;;;;;;3.28;2.47;;;;;20.70;98788.00;;;;2081038;28;20692;-75
2023/03/24 04:28:56;;;;;;;2.80;2.60;;;;;20.70;98787.00;;;;2081005;28;20261;-75
2023/03/24 04:30:15;;;;;;;3.20;2.80;;;;;20.70;98792.00;;;;2090370;28;20263;-75
2023/03/24 04:31:22;;;;;;;2.70;2.50;;;;;20.60;98798.00;;;;2106609;28;20213;-75
2023/03/24 04:32:31;;;;;;;2.70;2.50;;;;;20.60;98788.00;;;;2095713;28;20726;-75
2023/03/24 04:33:47;;;;;;;2.95;2.40;;;;;20.60;98798.00;;;;2096592;28;20624;-75
2023/03/24 04:34:53;;;;;;;2.15;1.92;;;;;20.60;98799.00;;;;2089470;28;20211;-75
2023/03/24 04:36:05;;;;;;;2.60;2.40;;;;;20.60;98792.00;;;;2088994;28;20792;-74
2023/03/24 04:37:13;;;;;;;2.38;1.90;;;;;20.60;98765.00;;;;2089851;28;20216;-74
2023/03/24 04:38:21;;;;;;;2.50;2.30;;;;;20.60;98775.00;;;;2081586;28;20324;-74
2023/03/24 04:39:24;;;;;;;3.45;2.28;;;;;20.60;98794.00;;;;2089580;28;20250;-75
2023/03/24 04:40:25;;;;;;;2.95;2.65;;;;;20.60;98800.00;;;;2095460;28;20200;-74
2023/03/24 04:41:25;;;;;;;2.17;1.97;;;;;20.60;98781.00;;;;2087550;28;20208;-75
2023/03/24 04:42:34;;;;;;;3.33;2.20;;;;;20.60;98787.00;;;;2086406;28;20247;-74
2023/03/24 04:43:36;;;;;;;2.33;2.13;;;;;20.60;98779.00;;;;2088701;28;20623;-75
2023/03/24 04:44:36;;;;;;;3.15;2.10;;;;;20.60;98774.00;;;;2096167;28;20208;-73
2023/03/24 04:45:36;;;;;;;2.53;1.90;;;;;20.60;98793.00;;;;2103262;28;20634;-74
2023/03/24 04:46:38;;;;;;;2.40;2.20;;;;;20.60;98774.00;;;;2103135;28;20257;-73
2023/03/24 04:47:46;;;;;;;2.50;2.30;;;;;20.60;98801.00;;;;2103279;28;20706;-75
2023/03/24 04:48:47;;;;;;;2.90;2.30;;;;;20.60;98794.00;;;;2088794;28;20678;-75
2023/03/24 04:49:47;;;;;;;2.87;1.83;;;;;20.60;98802.00;;;;2087452;28;20223;-75
2023/03/24 04:51:08;;;;;;;2.30;1.97;;;;;20.60;98799.00;;;;2104186;28;20243;-74
2023/03/24 04:52:08;;;;;;;5.28;2.35;;;;;20.60;98796.00;;;;2102503;28;20618;-74
2023/03/24 04:53:09;;;;;;;2.00;1.80;;;;;20.60;98806.00;;;;2103916;28;20245;-75
2023/03/24 04:54:10;;;;;;;2.20;1.77;;;;;20.60;98814.00;;;;2103806;28;20245;-75
2023/03/24 04:55:36;;;;;;;3.30;2.23;;;;;20.60;98834.00;;;;2094780;28;20283;-75
2023/03/24 04:56:47;;;;;;;3.03;2.22;;;;;20.60;98826.00;;;;2098320;28;20453;-73
2023/03/24 04:57:47;;;;;;;3.38;2.15;;;;;20.60;98829.00;;;;2088916;28;20216;-69
2023/03/24 04:58:48;;;;;;;3.90;2.40;;;;;20.60;98842.00;;;;2096540;28;20211;-78
2023/03/24 04:59:48;;;;;;;3.47;2.20;;;;;20.60;98823.00;;;;2112611;28;20642;-75
2023/03/24 05:00:49;;;;;;;3.27;2.37;;;;;20.60;98841.00;;;;2104229;28;20207;-74
2023/03/24 05:01:50;;;;;;;2.78;2.33;;;;;20.60;98843.00;;;;2103679;28;20211;-79
2023/03/24 05:02:51;;;;;;;3.07;2.10;;;;;20.60;98838.00;;;;2113186;28;20207;-79
2023/03/24 05:03:51;;;;;;;2.10;1.87;;;;;20.60;98837.00;;;;2113206;28;20291;-78
2023/03/24 05:04:52;;;;;;;2.13;1.93;;;;;20.60;98833.00;;;;2112458;28;20221;-74
2023/03/24 05:05:52;;;;;;;3.53;2.30;;;;;20.70;98818.00;;;;2112748;28;20464;-75
2023/03/24 05:06:53;;;;;;;2.40;2.20;;;;;20.60;98849.00;;;;2104034;28;20588;-73
2023/03/24 05:07:55;;;;;;;3.83;2.37;;;;;20.60;98843.00;;;;2103486;28;20598;-75
2023/03/24 05:08:57;;;;;;;2.42;1.90;;;;;20.60;98851.00;;;;2104032;28;20617;-73
2023/03/24 05:09:58;;;;;;;3.15;1.90;;;;;20.60;98855.00;;;;2095797;28;20231;-74
2023/03/24 05:10:58;;;;;;;2.10;1.90;;;;;20.60;98850.00;;;;2104236;28;20216;-75
2023/03/24 05:11:58;;;;;;;1.97;1.77;;;;;20.60;98847.00;;;;2112462;28;20214;-75
2023/03/24 05:12:59;;;;;;;2.87;1.97;;;;;20.60;98856.00;;;;2112870;28;20222;-75
2023/03/24 05:13:59;;;;;;;4.10;2.40;;;;;20.70;98856.00;;;;2112962;28;20590;-77
2023/03/24 05:15:00;;;;;;;3.00;2.13;;;;;20.60;98852.00;;;;2102963;28;20577;-79
2023/03/24 05:16:00;;;;;;;2.33;1.80;;;;;20.70;98871.00;;;;2103999;28;20720;-75
2023/03/24 05:17:01;;;;;;;3.40;2.17;;;;;20.60;98868.00;;;;2112275;28;20926;-75
2023/03/24 05:18:01;;;;;;;3.57;2.33;;;;;20.60;98878.00;;;;2113160;28;21113;-74
2023/03/24 05:19:02;;;;;;;3.00;1.80;;;;;20.40;98865.00;;;;2112387;28;20685;-75
2023/03/24 05:20:06;;;;;;;4.33;2.00;;;;;20.60;98873.00;;;;2112975;28;20211;-75
2023/03/24 05:21:06;;;;;;;4.15;2.10;;;;;20.60;98880.00;;;;2113208;28;20218;-75
2023/03/24 05:22:06;;;;;;;5.23;1.80;;;;;20.60;98880.00;;;;2111760;28;20290;-74
2023/03/24 05:23:07;;;;;;;1.50;1.40;;;;;20.60;98895.00;;;;2112611;28;20219;-74
2023/03/24 05:24:07;;;;;;;3.10;1.80;;;;;20.60;98884.00;;;;2111301;28;20218;-74
2023/03/24 05:25:07;;;;;;;3.80;1.87;;;;;20.60;98898.00;;;;2112936;28;20218;-71
2023/03/24 05:26:08;;;;;;;2.90;1.80;;;;;20.60;98911.00;;;;2112380;28;20215;-73
2023/03/24 05:27:08;;;;;;;2.27;1.80;;;;;20.60;98912.00;;;;2112925;28;20214;-73